Amity, Pennsylvania
Current Conditions -  °F | °C
As of 6:55 AM on Thursday 27 Nov 2014 (Local Time) from KAFJ Reporting Station
Broken Clouds Broken Clouds  
Wind Chill: 32°   Ceiling: 1900
Heat Index: 32°   Visibility: 5mi
Dew Point: 28°   Wind: 3mph
Humidity: 87%   Direction: 280°W
Pressure: 30.03"   Gusts: NA
Location:  40.03°N, 80.2°W
Report Text: KAFJ 271155Z 28003KT 5SM FEW006 SCT014 BKN019 00/M02 A3003 RMK AO1 70006 10000 21010 52007
Loading
Personal Weather Stations






























Interactive Weather Map New forecast layout! Learn more

10-Day Weather Forecast

Advertisements
Track Severe Weather on mobile